sensor_id;sensor_type;location;lat;lon;timestamp;P1;durP1;ratioP1;P2;durP2;ratioP2
21886;SDS011;11108;49.988;8.182;2024-02-04T00:01:38;1.10;;;0.50;;
21886;SDS011;11108;49.988;8.182;2024-02-04T00:04:04;0.50;;;0.50;;
21886;SDS011;11108;49.988;8.182;2024-02-04T00:06:29;0.40;;;0.40;;
21886;SDS011;11108;49.988;8.182;2024-02-04T00:08:54;0.53;;;0.50;;
21886;SDS011;11108;49.988;8.182;2024-02-04T00:11:20;0.50;;;0.50;;
21886;SDS011;11108;49.988;8.182;2024-02-04T00:13:45;0.30;;;0.30;;
21886;SDS011;11108;49.988;8.182;2024-02-04T00:16:10;0.60;;;0.40;;
21886;SDS011;11108;49.988;8.182;2024-02-04T00:18:35;0.50;;;0.50;;
21886;SDS011;11108;49.988;8.182;2024-02-04T00:21:01;0.50;;;0.50;;
21886;SDS011;11108;49.988;8.182;2024-02-04T00:23:26;0.40;;;0.40;;
21886;SDS011;11108;49.988;8.182;2024-02-04T00:25:51;0.50;;;0.50;;
21886;SDS011;11108;49.988;8.182;2024-02-04T00:28:16;0.40;;;0.40;;
21886;SDS011;11108;49.988;8.182;2024-02-04T00:30:43;0.50;;;0.50;;
21886;SDS011;11108;49.988;8.182;2024-02-04T00:33:09;0.30;;;0.30;;
21886;SDS011;11108;49.988;8.182;2024-02-04T00:35:34;0.30;;;0.30;;
21886;SDS011;11108;49.988;8.182;2024-02-04T00:37:59;0.40;;;0.40;;
21886;SDS011;11108;49.988;8.182;2024-02-04T00:40:24;1.33;;;0.50;;
21886;SDS011;11108;49.988;8.182;2024-02-04T00:42:51;0.40;;;0.40;;
21886;SDS011;11108;49.988;8.182;2024-02-04T00:45:16;0.40;;;0.40;;
21886;SDS011;11108;49.988;8.182;2024-02-04T00:47:41;0.40;;;0.30;;
21886;SDS011;11108;49.988;8.182;2024-02-04T00:50:07;0.73;;;0.40;;
21886;SDS011;11108;49.988;8.182;2024-02-04T00:52:32;1.70;;;0.50;;
21886;SDS011;11108;49.988;8.182;2024-02-04T00:54:57;0.40;;;0.40;;
21886;SDS011;11108;49.988;8.182;2024-02-04T00:57:23;0.30;;;0.30;;
21886;SDS011;11108;49.988;8.182;2024-02-04T00:59:48;0.40;;;0.40;;
21886;SDS011;11108;49.988;8.182;2024-02-04T01:02:15;0.40;;;0.40;;
21886;SDS011;11108;49.988;8.182;2024-02-04T01:04:40;0.73;;;0.33;;
21886;SDS011;11108;49.988;8.182;2024-02-04T01:07:05;0.40;;;0.40;;
21886;SDS011;11108;49.988;8.182;2024-02-04T01:09:30;1.17;;;0.40;;
21886;SDS011;11108;49.988;8.182;2024-02-04T01:11:56;0.30;;;0.30;;
21886;SDS011;11108;49.988;8.182;2024-02-04T01:14:21;0.43;;;0.30;;
21886;SDS011;11108;49.988;8.182;2024-02-04T01:16:46;0.40;;;0.40;;
21886;SDS011;11108;49.988;8.182;2024-02-04T01:19:11;0.50;;;0.50;;
21886;SDS011;11108;49.988;8.182;2024-02-04T01:21:37;0.37;;;0.37;;
21886;SDS011;11108;49.988;8.182;2024-02-04T01:24:02;0.40;;;0.40;;
21886;SDS011;11108;49.988;8.182;2024-02-04T01:26:27;0.50;;;0.50;;
21886;SDS011;11108;49.988;8.182;2024-02-04T01:28:52;0.40;;;0.30;;
21886;SDS011;11108;49.988;8.182;2024-02-04T01:31:18;1.13;;;0.50;;
21886;SDS011;11108;49.988;8.182;2024-02-04T01:33:43;0.20;;;0.20;;
21886;SDS011;11108;49.988;8.182;2024-02-04T01:36:08;0.43;;;0.40;;
21886;SDS011;11108;49.988;8.182;2024-02-04T01:38:33;0.30;;;0.30;;
21886;SDS011;11108;49.988;8.182;2024-02-04T01:40:59;0.40;;;0.40;;
21886;SDS011;11108;49.988;8.182;2024-02-04T01:43:24;0.40;;;0.40;;
21886;SDS011;11108;49.988;8.182;2024-02-04T01:45:52;0.30;;;0.30;;
21886;SDS011;11108;49.988;8.182;2024-02-04T01:48:18;0.43;;;0.40;;
21886;SDS011;11108;49.988;8.182;2024-02-04T01:50:44;0.40;;;0.40;;
21886;SDS011;11108;49.988;8.182;2024-02-04T01:53:09;0.33;;;0.33;;
21886;SDS011;11108;49.988;8.182;2024-02-04T01:55:35;1.07;;;0.50;;
21886;SDS011;11108;49.988;8.182;2024-02-04T01:58:01;0.20;;;0.20;;
21886;SDS011;11108;49.988;8.182;2024-02-04T02:00:26;0.30;;;0.30;;
21886;SDS011;11108;49.988;8.182;2024-02-04T02:02:52;0.30;;;0.30;;
21886;SDS011;11108;49.988;8.182;2024-02-04T02:05:18;0.30;;;0.30;;
21886;SDS011;11108;49.988;8.182;2024-02-04T02:07:43;0.20;;;0.20;;
21886;SDS011;11108;49.988;8.182;2024-02-04T02:10:10;0.23;;;0.23;;
21886;SDS011;11108;49.988;8.182;2024-02-04T02:15:14;0.30;;;0.30;;
21886;SDS011;11108;49.988;8.182;2024-02-04T02:18:02;0.30;;;0.30;;
21886;SDS011;11108;49.988;8.182;2024-02-04T02:23:03;0.27;;;0.27;;
21886;SDS011;11108;49.988;8.182;2024-02-04T02:25:32;0.33;;;0.33;;
21886;SDS011;11108;49.988;8.182;2024-02-04T02:27:58;0.27;;;0.27;;
21886;SDS011;11108;49.988;8.182;2024-02-04T02:30:24;0.30;;;0.30;;
21886;SDS011;11108;49.988;8.182;2024-02-04T02:32:49;0.30;;;0.30;;
21886;SDS011;11108;49.988;8.182;2024-02-04T02:35:18;0.53;;;0.40;;
21886;SDS011;11108;49.988;8.182;2024-02-04T02:37:44;0.20;;;0.20;;
21886;SDS011;11108;49.988;8.182;2024-02-04T02:42:43;0.40;;;0.30;;
21886;SDS011;11108;49.988;8.182;2024-02-04T02:45:10;0.40;;;0.40;;
21886;SDS011;11108;49.988;8.182;2024-02-04T02:47:36;0.20;;;0.20;;
21886;SDS011;11108;49.988;8.182;2024-02-04T02:50:02;0.20;;;0.20;;
21886;SDS011;11108;49.988;8.182;2024-02-04T02:52:28;0.20;;;0.20;;
21886;SDS011;11108;49.988;8.182;2024-02-04T02:54:53;0.37;;;0.30;;
21886;SDS011;11108;49.988;8.182;2024-02-04T02:57:18;0.40;;;0.40;;
21886;SDS011;11108;49.988;8.182;2024-02-04T02:59:43;0.47;;;0.30;;
21886;SDS011;11108;49.988;8.182;2024-02-04T03:02:08;0.40;;;0.40;;
21886;SDS011;11108;49.988;8.182;2024-02-04T03:04:34;0.20;;;0.20;;
21886;SDS011;11108;49.988;8.182;2024-02-04T03:06:59;0.40;;;0.40;;
21886;SDS011;11108;49.988;8.182;2024-02-04T03:09:24;0.20;;;0.20;;
21886;SDS011;11108;49.988;8.182;2024-02-04T03:11:49;0.30;;;0.30;;
21886;SDS011;11108;49.988;8.182;2024-02-04T03:14:15;0.37;;;0.37;;
21886;SDS011;11108;49.988;8.182;2024-02-04T03:16:43;0.30;;;0.30;;
21886;SDS011;11108;49.988;8.182;2024-02-04T03:19:09;0.30;;;0.30;;
21886;SDS011;11108;49.988;8.182;2024-02-04T03:21:34;2.23;;;0.50;;
21886;SDS011;11108;49.988;8.182;2024-02-04T03:23:59;0.40;;;0.40;;
21886;SDS011;11108;49.988;8.182;2024-02-04T03:26:24;0.83;;;0.30;;
21886;SDS011;11108;49.988;8.182;2024-02-04T03:28:50;0.33;;;0.20;;
21886;SDS011;11108;49.988;8.182;2024-02-04T03:31:21;0.30;;;0.30;;
21886;SDS011;11108;49.988;8.182;2024-02-04T03:33:47;0.30;;;0.30;;
21886;SDS011;11108;49.988;8.182;2024-02-04T03:36:12;0.33;;;0.33;;
21886;SDS011;11108;49.988;8.182;2024-02-04T03:38:39;0.30;;;0.30;;
21886;SDS011;11108;49.988;8.182;2024-02-04T03:41:04;1.40;;;0.50;;
21886;SDS011;11108;49.988;8.182;2024-02-04T03:43:29;0.27;;;0.27;;
21886;SDS011;11108;49.988;8.182;2024-02-04T03:45:55;0.23;;;0.23;;
21886;SDS011;11108;49.988;8.182;2024-02-04T03:48:20;0.20;;;0.20;;
21886;SDS011;11108;49.988;8.182;2024-02-04T03:50:45;0.23;;;0.23;;
21886;SDS011;11108;49.988;8.182;2024-02-04T03:53:10;0.20;;;0.20;;
21886;SDS011;11108;49.988;8.182;2024-02-04T03:55:35;0.20;;;0.20;;
21886;SDS011;11108;49.988;8.182;2024-02-04T03:58:01;0.20;;;0.20;;
21886;SDS011;11108;49.988;8.182;2024-02-04T04:00:26;0.53;;;0.40;;
21886;SDS011;11108;49.988;8.182;2024-02-04T04:02:52;0.20;;;0.20;;
21886;SDS011;11108;49.988;8.182;2024-02-04T04:05:17;0.20;;;0.20;;
21886;SDS011;11108;49.988;8.182;2024-02-04T04:07:42;0.30;;;0.30;;
21886;SDS011;11108;49.988;8.182;2024-02-04T04:10:07;0.33;;;0.30;;
21886;SDS011;11108;49.988;8.182;2024-02-04T04:12:33;0.40;;;0.40;;
21886;SDS011;11108;49.988;8.182;2024-02-04T04:14:58;0.20;;;0.20;;
21886;SDS011;11108;49.988;8.182;2024-02-04T04:17:23;0.43;;;0.43;;
21886;SDS011;11108;49.988;8.182;2024-02-04T04:19:48;0.33;;;0.33;;
21886;SDS011;11108;49.988;8.182;2024-02-04T04:22:13;0.20;;;0.20;;
21886;SDS011;11108;49.988;8.182;2024-02-04T04:24:39;0.20;;;0.20;;
21886;SDS011;11108;49.988;8.182;2024-02-04T04:27:04;0.20;;;0.20;;
21886;SDS011;11108;49.988;8.182;2024-02-04T04:29:29;0.40;;;0.40;;
21886;SDS011;11108;49.988;8.182;2024-02-04T04:31:55;0.20;;;0.20;;
21886;SDS011;11108;49.988;8.182;2024-02-04T04:34:20;0.30;;;0.30;;
21886;SDS011;11108;49.988;8.182;2024-02-04T04:36:46;0.40;;;0.40;;
21886;SDS011;11108;49.988;8.182;2024-02-04T04:39:11;0.30;;;0.30;;
21886;SDS011;11108;49.988;8.182;2024-02-04T04:41:36;0.20;;;0.20;;
21886;SDS011;11108;49.988;8.182;2024-02-04T04:44:01;0.20;;;0.20;;
21886;SDS011;11108;49.988;8.182;2024-02-04T04:46:27;0.20;;;0.20;;
21886;SDS011;11108;49.988;8.182;2024-02-04T04:48:52;0.37;;;0.27;;
21886;SDS011;11108;49.988;8.182;2024-02-04T04:51:17;0.20;;;0.20;;
21886;SDS011;11108;49.988;8.182;2024-02-04T04:53:42;0.30;;;0.30;;
21886;SDS011;11108;49.988;8.182;2024-02-04T04:56:08;0.30;;;0.30;;
21886;SDS011;11108;49.988;8.182;2024-02-04T04:58:34;0.20;;;0.20;;
21886;SDS011;11108;49.988;8.182;2024-02-04T05:01:00;0.30;;;0.30;;
21886;SDS011;11108;49.988;8.182;2024-02-04T05:03:25;0.30;;;0.30;;
21886;SDS011;11108;49.988;8.182;2024-02-04T05:05:50;0.20;;;0.20;;
21886;SDS011;11108;49.988;8.182;2024-02-04T05:08:15;0.27;;;0.27;;
21886;SDS011;11108;49.988;8.182;2024-02-04T05:10:40;0.30;;;0.30;;
21886;SDS011;11108;49.988;8.182;2024-02-04T05:13:06;0.40;;;0.40;;
21886;SDS011;11108;49.988;8.182;2024-02-04T05:15:32;0.23;;;0.23;;
21886;SDS011;11108;49.988;8.182;2024-02-04T05:17:59;0.20;;;0.20;;
21886;SDS011;11108;49.988;8.182;2024-02-04T05:20:24;0.20;;;0.20;;
21886;SDS011;11108;49.988;8.182;2024-02-04T05:22:49;0.30;;;0.30;;
21886;SDS011;11108;49.988;8.182;2024-02-04T05:25:14;0.30;;;0.30;;
21886;SDS011;11108;49.988;8.182;2024-02-04T05:27:39;0.40;;;0.40;;
21886;SDS011;11108;49.988;8.182;2024-02-04T05:30:05;0.30;;;0.30;;
21886;SDS011;11108;49.988;8.182;2024-02-04T05:32:30;0.20;;;0.20;;
21886;SDS011;11108;49.988;8.182;2024-02-04T05:34:55;0.57;;;0.20;;
21886;SDS011;11108;49.988;8.182;2024-02-04T05:37:21;0.77;;;0.20;;
21886;SDS011;11108;49.988;8.182;2024-02-04T05:39:46;0.20;;;0.20;;
21886;SDS011;11108;49.988;8.182;2024-02-04T05:42:12;0.30;;;0.30;;
21886;SDS011;11108;49.988;8.182;2024-02-04T05:44:37;0.30;;;0.30;;
21886;SDS011;11108;49.988;8.182;2024-02-04T05:47:02;0.20;;;0.20;;
21886;SDS011;11108;49.988;8.182;2024-02-04T05:49:27;0.20;;;0.20;;
21886;SDS011;11108;49.988;8.182;2024-02-04T05:51:53;0.30;;;0.30;;
21886;SDS011;11108;49.988;8.182;2024-02-04T05:54:18;0.40;;;0.40;;
21886;SDS011;11108;49.988;8.182;2024-02-04T05:56:43;0.20;;;0.20;;
21886;SDS011;11108;49.988;8.182;2024-02-04T05:59:09;0.20;;;0.20;;
21886;SDS011;11108;49.988;8.182;2024-02-04T06:01:34;0.30;;;0.20;;
21886;SDS011;11108;49.988;8.182;2024-02-04T06:03:59;0.23;;;0.23;;
21886;SDS011;11108;49.988;8.182;2024-02-04T06:06:24;0.30;;;0.30;;
21886;SDS011;11108;49.988;8.182;2024-02-04T06:08:49;0.20;;;0.20;;
21886;SDS011;11108;49.988;8.182;2024-02-04T06:11:15;0.20;;;0.20;;
21886;SDS011;11108;49.988;8.182;2024-02-04T06:13:40;0.30;;;0.30;;
21886;SDS011;11108;49.988;8.182;2024-02-04T06:16:06;0.20;;;0.20;;
21886;SDS011;11108;49.988;8.182;2024-02-04T06:18:31;0.20;;;0.20;;
21886;SDS011;11108;49.988;8.182;2024-02-04T06:20:57;0.20;;;0.20;;
21886;SDS011;11108;49.988;8.182;2024-02-04T06:23:22;0.67;;;0.30;;
21886;SDS011;11108;49.988;8.182;2024-02-04T06:25:47;0.30;;;0.30;;
21886;SDS011;11108;49.988;8.182;2024-02-04T06:28:13;0.20;;;0.20;;
21886;SDS011;11108;49.988;8.182;2024-02-04T06:30:38;0.20;;;0.20;;
21886;SDS011;11108;49.988;8.182;2024-02-04T06:33:03;0.10;;;0.10;;
21886;SDS011;11108;49.988;8.182;2024-02-04T06:35:28;0.10;;;0.10;;
21886;SDS011;11108;49.988;8.182;2024-02-04T06:37:54;0.20;;;0.20;;
21886;SDS011;11108;49.988;8.182;2024-02-04T06:40:19;0.20;;;0.20;;
21886;SDS011;11108;49.988;8.182;2024-02-04T06:42:44;0.93;;;0.30;;
21886;SDS011;11108;49.988;8.182;2024-02-04T06:45:09;0.20;;;0.20;;
21886;SDS011;11108;49.988;8.182;2024-02-04T06:47:35;0.20;;;0.20;;
21886;SDS011;11108;49.988;8.182;2024-02-04T06:50:00;0.73;;;0.30;;
21886;SDS011;11108;49.988;8.182;2024-02-04T06:52:28;1.67;;;0.33;;
21886;SDS011;11108;49.988;8.182;2024-02-04T06:54:53;0.97;;;0.20;;
21886;SDS011;11108;49.988;8.182;2024-02-04T06:57:18;0.57;;;0.20;;
21886;SDS011;11108;49.988;8.182;2024-02-04T06:59:43;0.53;;;0.30;;
21886;SDS011;11108;49.988;8.182;2024-02-04T07:02:08;0.20;;;0.20;;
21886;SDS011;11108;49.988;8.182;2024-02-04T07:04:34;0.30;;;0.30;;
21886;SDS011;11108;49.988;8.182;2024-02-04T07:06:59;0.20;;;0.20;;
21886;SDS011;11108;49.988;8.182;2024-02-04T07:09:24;0.97;;;0.20;;
21886;SDS011;11108;49.988;8.182;2024-02-04T07:11:49;0.10;;;0.10;;
21886;SDS011;11108;49.988;8.182;2024-02-04T07:14:14;0.30;;;0.30;;
21886;SDS011;11108;49.988;8.182;2024-02-04T07:16:40;0.80;;;0.20;;
21886;SDS011;11108;49.988;8.182;2024-02-04T07:19:05;0.97;;;0.30;;
21886;SDS011;11108;49.988;8.182;2024-02-04T07:21:30;0.93;;;0.63;;
21886;SDS011;11108;49.988;8.182;2024-02-04T07:23:55;0.63;;;0.30;;
21886;SDS011;11108;49.988;8.182;2024-02-04T07:26:20;0.13;;;0.13;;
21886;SDS011;11108;49.988;8.182;2024-02-04T07:28:46;0.20;;;0.20;;
21886;SDS011;11108;49.988;8.182;2024-02-04T07:31:11;0.20;;;0.20;;
21886;SDS011;11108;49.988;8.182;2024-02-04T07:33:36;0.20;;;0.20;;
21886;SDS011;11108;49.988;8.182;2024-02-04T07:36:02;0.20;;;0.20;;
21886;SDS011;11108;49.988;8.182;2024-02-04T07:38:27;0.20;;;0.20;;
21886;SDS011;11108;49.988;8.182;2024-02-04T07:40:52;1.30;;;0.43;;
21886;SDS011;11108;49.988;8.182;2024-02-04T07:43:18;0.40;;;0.30;;
21886;SDS011;11108;49.988;8.182;2024-02-04T07:45:43;0.20;;;0.20;;
21886;SDS011;11108;49.988;8.182;2024-02-04T07:48:08;0.10;;;0.10;;
21886;SDS011;11108;49.988;8.182;2024-02-04T07:50:34;0.30;;;0.20;;
21886;SDS011;11108;49.988;8.182;2024-02-04T07:52:59;0.23;;;0.23;;
21886;SDS011;11108;49.988;8.182;2024-02-04T07:55:24;0.20;;;0.20;;
21886;SDS011;11108;49.988;8.182;2024-02-04T07:57:50;0.10;;;0.10;;
21886;SDS011;11108;49.988;8.182;2024-02-04T08:00:15;0.23;;;0.23;;
21886;SDS011;11108;49.988;8.182;2024-02-04T08:02:40;0.10;;;0.10;;
21886;SDS011;11108;49.988;8.182;2024-02-04T08:05:05;0.30;;;0.30;;
21886;SDS011;11108;49.988;8.182;2024-02-04T08:07:31;0.37;;;0.37;;
21886;SDS011;11108;49.988;8.182;2024-02-04T08:09:56;0.17;;;0.17;;
21886;SDS011;11108;49.988;8.182;2024-02-04T08:12:22;1.00;;;0.30;;
21886;SDS011;11108;49.988;8.182;2024-02-04T08:14:47;2.30;;;0.37;;
21886;SDS011;11108;49.988;8.182;2024-02-04T08:17:13;0.40;;;0.37;;
21886;SDS011;11108;49.988;8.182;2024-02-04T08:19:38;0.17;;;0.17;;
21886;SDS011;11108;49.988;8.182;2024-02-04T08:22:03;0.30;;;0.30;;
21886;SDS011;11108;49.988;8.182;2024-02-04T08:24:29;0.67;;;0.30;;
21886;SDS011;11108;49.988;8.182;2024-02-04T08:26:56;0.23;;;0.23;;
21886;SDS011;11108;49.988;8.182;2024-02-04T08:29:22;0.20;;;0.20;;
21886;SDS011;11108;49.988;8.182;2024-02-04T08:31:47;0.97;;;0.20;;
21886;SDS011;11108;49.988;8.182;2024-02-04T08:34:12;1.33;;;0.20;;
21886;SDS011;11108;49.988;8.182;2024-02-04T08:36:38;0.40;;;0.40;;
21886;SDS011;11108;49.988;8.182;2024-02-04T08:39:03;0.30;;;0.30;;
21886;SDS011;11108;49.988;8.182;2024-02-04T08:41:28;0.20;;;0.20;;
21886;SDS011;11108;49.988;8.182;2024-02-04T08:43:53;1.50;;;0.30;;
21886;SDS011;11108;49.988;8.182;2024-02-04T08:46:18;1.60;;;0.30;;
21886;SDS011;11108;49.988;8.182;2024-02-04T08:48:44;2.27;;;0.40;;
21886;SDS011;11108;49.988;8.182;2024-02-04T08:51:12;0.27;;;0.27;;
21886;SDS011;11108;49.988;8.182;2024-02-04T08:53:38;0.40;;;0.40;;
21886;SDS011;11108;49.988;8.182;2024-02-04T08:56:03;1.37;;;0.33;;
21886;SDS011;11108;49.988;8.182;2024-02-04T08:58:29;0.90;;;0.30;;
21886;SDS011;11108;49.988;8.182;2024-02-04T09:00:55;1.47;;;0.30;;
21886;SDS011;11108;49.988;8.182;2024-02-04T09:03:20;0.40;;;0.30;;
21886;SDS011;11108;49.988;8.182;2024-02-04T09:05:45;0.60;;;0.50;;
21886;SDS011;11108;49.988;8.182;2024-02-04T09:08:10;2.10;;;0.40;;
21886;SDS011;11108;49.988;8.182;2024-02-04T09:10:36;0.27;;;0.27;;
21886;SDS011;11108;49.988;8.182;2024-02-04T09:13:01;0.20;;;0.20;;
21886;SDS011;11108;49.988;8.182;2024-02-04T09:15:26;0.40;;;0.40;;
21886;SDS011;11108;49.988;8.182;2024-02-04T09:17:51;0.47;;;0.47;;
21886;SDS011;11108;49.988;8.182;2024-02-04T09:20:16;0.80;;;0.40;;
21886;SDS011;11108;49.988;8.182;2024-02-04T09:22:42;0.50;;;0.33;;
21886;SDS011;11108;49.988;8.182;2024-02-04T09:25:08;0.23;;;0.20;;
21886;SDS011;11108;49.988;8.182;2024-02-04T09:27:33;1.53;;;0.40;;
21886;SDS011;11108;49.988;8.182;2024-02-04T09:29:58;0.97;;;0.20;;
21886;SDS011;11108;49.988;8.182;2024-02-04T09:32:23;0.40;;;0.23;;
21886;SDS011;11108;49.988;8.182;2024-02-04T09:34:49;0.53;;;0.33;;
21886;SDS011;11108;49.988;8.182;2024-02-04T09:37:14;0.20;;;0.20;;
21886;SDS011;11108;49.988;8.182;2024-02-04T09:39:39;1.50;;;0.30;;
21886;SDS011;11108;49.988;8.182;2024-02-04T09:42:04;0.30;;;0.30;;
21886;SDS011;11108;49.988;8.182;2024-02-04T09:44:30;1.37;;;0.30;;
21886;SDS011;11108;49.988;8.182;2024-02-04T09:46:57;1.60;;;0.50;;
21886;SDS011;11108;49.988;8.182;2024-02-04T09:49:24;1.27;;;0.50;;
21886;SDS011;11108;49.988;8.182;2024-02-04T09:51:50;0.40;;;0.30;;
21886;SDS011;11108;49.988;8.182;2024-02-04T09:54:15;2.70;;;0.30;;
21886;SDS011;11108;49.988;8.182;2024-02-04T09:56:41;0.20;;;0.20;;
21886;SDS011;11108;49.988;8.182;2024-02-04T09:59:06;0.63;;;0.30;;
21886;SDS011;11108;49.988;8.182;2024-02-04T10:01:32;0.40;;;0.40;;
21886;SDS011;11108;49.988;8.182;2024-02-04T10:03:57;1.13;;;0.30;;
21886;SDS011;11108;49.988;8.182;2024-02-04T10:06:23;1.03;;;0.50;;
21886;SDS011;11108;49.988;8.182;2024-02-04T10:08:48;0.83;;;0.40;;
21886;SDS011;11108;49.988;8.182;2024-02-04T10:11:14;0.30;;;0.30;;
21886;SDS011;11108;49.988;8.182;2024-02-04T10:13:43;0.63;;;0.30;;
21886;SDS011;11108;49.988;8.182;2024-02-04T10:16:09;0.20;;;0.20;;
21886;SDS011;11108;49.988;8.182;2024-02-04T10:18:34;1.03;;;0.33;;
21886;SDS011;11108;49.988;8.182;2024-02-04T10:20:59;1.00;;;0.47;;
21886;SDS011;11108;49.988;8.182;2024-02-04T10:23:24;0.97;;;0.50;;
21886;SDS011;11108;49.988;8.182;2024-02-04T10:25:57;0.77;;;0.33;;
21886;SDS011;11108;49.988;8.182;2024-02-04T10:28:22;2.10;;;0.40;;
21886;SDS011;11108;49.988;8.182;2024-02-04T10:30:47;1.93;;;0.40;;
21886;SDS011;11108;49.988;8.182;2024-02-04T10:33:12;2.13;;;0.33;;
21886;SDS011;11108;49.988;8.182;2024-02-04T10:35:37;0.40;;;0.40;;
21886;SDS011;11108;49.988;8.182;2024-02-04T10:38:03;0.50;;;0.50;;
21886;SDS011;11108;49.988;8.182;2024-02-04T10:40:28;0.73;;;0.47;;
21886;SDS011;11108;49.988;8.182;2024-02-04T10:42:54;1.67;;;0.50;;
21886;SDS011;11108;49.988;8.182;2024-02-04T10:45:21;1.77;;;1.33;;
21886;SDS011;11108;49.988;8.182;2024-02-04T10:47:50;1.80;;;1.20;;
21886;SDS011;11108;49.988;8.182;2024-02-04T10:50:18;1.53;;;1.30;;
21886;SDS011;11108;49.988;8.182;2024-02-04T10:52:44;1.80;;;1.23;;
21886;SDS011;11108;49.988;8.182;2024-02-04T10:55:11;1.27;;;0.90;;
21886;SDS011;11108;49.988;8.182;2024-02-04T10:57:39;1.20;;;1.07;;
21886;SDS011;11108;49.988;8.182;2024-02-04T11:00:05;1.20;;;1.00;;
21886;SDS011;11108;49.988;8.182;2024-02-04T11:02:36;1.50;;;1.13;;
21886;SDS011;11108;49.988;8.182;2024-02-04T11:05:03;1.10;;;1.00;;
21886;SDS011;11108;49.988;8.182;2024-02-04T11:07:33;0.97;;;0.97;;
21886;SDS011;11108;49.988;8.182;2024-02-04T11:09:59;1.57;;;1.00;;
21886;SDS011;11108;49.988;8.182;2024-02-04T11:12:24;1.27;;;1.03;;
21886;SDS011;11108;49.988;8.182;2024-02-04T11:14:51;0.80;;;0.80;;
21886;SDS011;11108;49.988;8.182;2024-02-04T11:27:43;0.80;;;0.80;;
21886;SDS011;11108;49.988;8.182;2024-02-04T11:30:09;1.43;;;0.77;;
21886;SDS011;11108;49.988;8.182;2024-02-04T11:32:35;1.00;;;1.00;;
21886;SDS011;11108;49.988;8.182;2024-02-04T11:35:00;0.70;;;0.70;;
21886;SDS011;11108;49.988;8.182;2024-02-04T11:37:27;1.00;;;0.90;;
21886;SDS011;11108;49.988;8.182;2024-02-04T11:39:53;0.60;;;0.60;;
21886;SDS011;11108;49.988;8.182;2024-02-04T11:42:19;0.70;;;0.70;;
21886;SDS011;11108;49.988;8.182;2024-02-04T11:44:45;0.53;;;0.53;;
21886;SDS011;11108;49.988;8.182;2024-02-04T11:47:11;0.87;;;0.87;;
21886;SDS011;11108;49.988;8.182;2024-02-04T11:49:36;0.90;;;0.90;;
21886;SDS011;11108;49.988;8.182;2024-02-04T11:52:01;1.17;;;0.80;;
21886;SDS011;11108;49.988;8.182;2024-02-04T11:54:27;0.70;;;0.70;;
21886;SDS011;11108;49.988;8.182;2024-02-04T11:56:52;1.73;;;0.70;;
21886;SDS011;11108;49.988;8.182;2024-02-04T11:59:23;1.60;;;0.87;;
21886;SDS011;11108;49.988;8.182;2024-02-04T12:01:48;0.80;;;0.80;;
21886;SDS011;11108;49.988;8.182;2024-02-04T12:04:15;1.57;;;1.00;;
21886;SDS011;11108;49.988;8.182;2024-02-04T12:06:41;0.97;;;0.83;;
21886;SDS011;11108;49.988;8.182;2024-02-04T12:09:07;0.67;;;0.67;;
21886;SDS011;11108;49.988;8.182;2024-02-04T12:11:33;1.27;;;1.03;;
21886;SDS011;11108;49.988;8.182;2024-02-04T12:13:59;0.97;;;0.97;;
21886;SDS011;11108;49.988;8.182;2024-02-04T12:16:26;0.77;;;0.77;;
21886;SDS011;11108;49.988;8.182;2024-02-04T12:18:51;1.37;;;1.00;;
21886;SDS011;11108;49.988;8.182;2024-02-04T12:21:16;1.17;;;0.97;;
21886;SDS011;11108;49.988;8.182;2024-02-04T12:23:41;1.23;;;0.90;;
21886;SDS011;11108;49.988;8.182;2024-02-04T12:26:07;1.97;;;0.90;;
21886;SDS011;11108;49.988;8.182;2024-02-04T12:28:32;0.93;;;0.93;;
21886;SDS011;11108;49.988;8.182;2024-02-04T12:30:57;0.83;;;0.83;;
21886;SDS011;11108;49.988;8.182;2024-02-04T12:33:23;0.80;;;0.80;;
21886;SDS011;11108;49.988;8.182;2024-02-04T12:35:52;0.70;;;0.70;;
21886;SDS011;11108;49.988;8.182;2024-02-04T12:38:17;0.93;;;0.70;;
21886;SDS011;11108;49.988;8.182;2024-02-04T12:40:42;0.90;;;0.90;;
21886;SDS011;11108;49.988;8.182;2024-02-04T12:43:10;0.83;;;0.70;;
21886;SDS011;11108;49.988;8.182;2024-02-04T12:45:35;0.73;;;0.70;;
21886;SDS011;11108;49.988;8.182;2024-02-04T12:48:00;0.97;;;0.73;;
21886;SDS011;11108;49.988;8.182;2024-02-04T12:50:26;0.60;;;0.60;;
21886;SDS011;11108;49.988;8.182;2024-02-04T12:53:07;1.27;;;0.80;;
21886;SDS011;11108;49.988;8.182;2024-02-04T12:55:34;0.80;;;0.80;;
21886;SDS011;11108;49.988;8.182;2024-02-04T13:00:29;0.77;;;0.77;;
21886;SDS011;11108;49.988;8.182;2024-02-04T13:02:54;0.80;;;0.80;;
21886;SDS011;11108;49.988;8.182;2024-02-04T13:05:23;0.57;;;0.50;;
21886;SDS011;11108;49.988;8.182;2024-02-04T13:07:56;0.93;;;0.90;;
21886;SDS011;11108;49.988;8.182;2024-02-04T13:10:25;0.67;;;0.50;;
21886;SDS011;11108;49.988;8.182;2024-02-04T13:13:04;0.50;;;0.50;;
21886;SDS011;11108;49.988;8.182;2024-02-04T13:15:31;0.60;;;0.60;;
21886;SDS011;11108;49.988;8.182;2024-02-04T13:17:56;0.70;;;0.60;;
21886;SDS011;11108;49.988;8.182;2024-02-04T13:20:22;0.60;;;0.60;;
21886;SDS011;11108;49.988;8.182;2024-02-04T13:22:47;0.70;;;0.60;;
21886;SDS011;11108;49.988;8.182;2024-02-04T13:25:12;0.80;;;0.80;;
21886;SDS011;11108;49.988;8.182;2024-02-04T13:27:38;0.60;;;0.60;;
21886;SDS011;11108;49.988;8.182;2024-02-04T13:30:03;0.70;;;0.70;;
21886;SDS011;11108;49.988;8.182;2024-02-04T13:32:29;0.60;;;0.60;;
21886;SDS011;11108;49.988;8.182;2024-02-04T13:34:54;0.40;;;0.40;;
21886;SDS011;11108;49.988;8.182;2024-02-04T13:37:19;0.80;;;0.80;;
21886;SDS011;11108;49.988;8.182;2024-02-04T13:39:44;0.77;;;0.77;;
21886;SDS011;11108;49.988;8.182;2024-02-04T13:42:10;0.73;;;0.60;;
21886;SDS011;11108;49.988;8.182;2024-02-04T13:44:35;0.70;;;0.60;;
21886;SDS011;11108;49.988;8.182;2024-02-04T13:47:00;0.80;;;0.50;;
21886;SDS011;11108;49.988;8.182;2024-02-04T13:49:26;0.70;;;0.70;;
21886;SDS011;11108;49.988;8.182;2024-02-04T13:51:51;0.40;;;0.40;;
21886;SDS011;11108;49.988;8.182;2024-02-04T13:54:16;0.63;;;0.60;;
21886;SDS011;11108;49.988;8.182;2024-02-04T13:56:41;0.60;;;0.60;;
21886;SDS011;11108;49.988;8.182;2024-02-04T13:59:07;1.33;;;0.80;;
21886;SDS011;11108;49.988;8.182;2024-02-04T14:01:32;1.17;;;0.53;;
21886;SDS011;11108;49.988;8.182;2024-02-04T14:03:57;0.83;;;0.60;;
21886;SDS011;11108;49.988;8.182;2024-02-04T14:06:22;0.50;;;0.40;;
21886;SDS011;11108;49.988;8.182;2024-02-04T14:08:48;0.70;;;0.70;;
21886;SDS011;11108;49.988;8.182;2024-02-04T14:11:13;0.60;;;0.50;;
21886;SDS011;11108;49.988;8.182;2024-02-04T14:13:38;0.80;;;0.50;;
21886;SDS011;11108;49.988;8.182;2024-02-04T14:16:04;0.60;;;0.60;;
21886;SDS011;11108;49.988;8.182;2024-02-04T14:18:29;0.97;;;0.70;;
21886;SDS011;11108;49.988;8.182;2024-02-04T14:20:55;1.40;;;0.70;;
21886;SDS011;11108;49.988;8.182;2024-02-04T14:23:20;1.03;;;0.57;;
21886;SDS011;11108;49.988;8.182;2024-02-04T14:25:45;3.70;;;0.60;;
21886;SDS011;11108;49.988;8.182;2024-02-04T14:28:11;0.97;;;0.80;;
21886;SDS011;11108;49.988;8.182;2024-02-04T14:30:36;0.50;;;0.50;;
21886;SDS011;11108;49.988;8.182;2024-02-04T14:33:01;0.50;;;0.50;;
21886;SDS011;11108;49.988;8.182;2024-02-04T14:35:28;0.57;;;0.57;;
21886;SDS011;11108;49.988;8.182;2024-02-04T14:37:53;1.13;;;0.57;;
21886;SDS011;11108;49.988;8.182;2024-02-04T14:40:18;1.03;;;0.80;;
21886;SDS011;11108;49.988;8.182;2024-02-04T14:42:43;1.10;;;0.80;;
21886;SDS011;11108;49.988;8.182;2024-02-04T14:45:09;0.80;;;0.50;;
21886;SDS011;11108;49.988;8.182;2024-02-04T14:47:35;0.53;;;0.47;;
21886;SDS011;11108;49.988;8.182;2024-02-04T14:50:00;1.30;;;0.60;;
21886;SDS011;11108;49.988;8.182;2024-02-04T14:52:26;0.50;;;0.50;;
21886;SDS011;11108;49.988;8.182;2024-02-04T14:54:52;0.50;;;0.50;;
21886;SDS011;11108;49.988;8.182;2024-02-04T14:57:17;0.40;;;0.40;;
21886;SDS011;11108;49.988;8.182;2024-02-04T14:59:42;0.70;;;0.70;;